Time;durP1;ratioP1;P1;durP2;ratioP2;P2;SDS_P1;SDS_P2;PMS_P1;PMS_P2;Temp;Humidity;BMP_temperature;BMP_pressure;BME280_temperature;BME280_humidity;BME280_pressure;Samples;Min_cycle;Max_cycle;Signal;HPM_P1;HPM_P2
2024/01/18 00:01:59;;;;;;;0.80;0.80;;;;;;;;;;8219329;28;20041;-59
2024/01/18 00:06:00;;;;;;;0.90;0.90;;;;;;;;;;8217723;28;20049;-59
2024/01/18 00:10:00;;;;;;;0.70;0.70;;;;;;;;;;8213832;28;20469;-58
2024/01/18 00:14:01;;;;;;;0.77;0.77;;;;;;;;;;8211575;28;20037;-59
2024/01/18 00:18:03;;;;;;;0.73;0.73;;;;;;;;;;8210263;28;20072;-58
2024/01/18 00:22:04;;;;;;;0.80;0.80;;;;;;;;;;8210882;28;20041;-58
2024/01/18 00:26:05;;;;;;;0.90;0.90;;;;;;;;;;8209160;28;20049;-60
2024/01/18 00:30:05;;;;;;;0.80;0.80;;;;;;;;;;8210503;28;20463;-60
2024/01/18 00:34:05;;;;;;;0.93;0.90;;;;;;;;;;8214899;28;20029;-57
2024/01/18 00:38:05;;;;;;;0.90;0.90;;;;;;;;;;8211066;28;20030;-58
2024/01/18 00:42:06;;;;;;;0.98;0.98;;;;;;;;;;8213138;28;20014;-58
2024/01/18 00:46:06;;;;;;;1.48;1.38;;;;;;;;;;8214145;28;20042;-58
2024/01/18 00:50:06;;;;;;;1.10;1.10;;;;;;;;;;8222324;28;20435;-56
2024/01/18 00:54:07;;;;;;;1.35;1.25;;;;;;;;;;8224049;28;20029;-57
2024/01/18 00:58:07;;;;;;;1.13;1.10;;;;;;;;;;8234573;28;20574;-58
2024/01/18 01:02:08;;;;;;;1.30;1.20;;;;;;;;;;8215924;28;20092;-58
2024/01/18 01:06:11;;;;;;;1.48;1.38;;;;;;;;;;8216498;28;20281;-59
2024/01/18 01:10:12;;;;;;;1.20;1.20;;;;;;;;;;8214688;28;20042;-58
2024/01/18 01:14:12;;;;;;;1.33;1.23;;;;;;;;;;8227401;28;20029;-58
2024/01/18 01:18:12;;;;;;;1.60;1.50;;;;;;;;;;8226006;28;20044;-56
2024/01/18 01:22:12;;;;;;;1.70;1.60;;;;;;;;;;8216723;28;20050;-58
2024/01/18 01:26:13;;;;;;;1.60;1.50;;;;;;;;;;8215025;28;20025;-58
2024/01/18 01:30:14;;;;;;;1.70;1.60;;;;;;;;;;8216990;28;20073;-58
2024/01/18 01:34:14;;;;;;;2.30;2.10;;;;;;;;;;8214958;28;20030;-57
2024/01/18 01:38:15;;;;;;;2.10;1.90;;;;;;;;;;8216929;28;20065;-58
2024/01/18 01:42:15;;;;;;;2.63;2.30;;;;;;;;;;8215748;28;20026;-58
2024/01/18 01:46:15;;;;;;;2.50;2.30;;;;;;;;;;8215280;28;20491;-57
2024/01/18 01:50:15;;;;;;;2.83;2.63;;;;;;;;;;8217501;28;20080;-58
2024/01/18 01:54:18;;;;;;;3.42;2.60;;;;;;;;;;8214294;28;20029;-56
2024/01/18 01:58:19;;;;;;;3.10;2.60;;;;;;;;;;8213906;28;20083;-57
2024/01/18 02:02:21;;;;;;;2.55;2.25;;;;;;;;;;8213991;28;20042;-58
2024/01/18 02:06:22;;;;;;;2.80;2.60;;;;;;;;;;8215199;28;20030;-58
2024/01/18 02:10:23;;;;;;;3.17;2.92;;;;;;;;;;8216490;28;20616;-58
2024/01/18 02:14:24;;;;;;;3.60;3.30;;;;;;;;;;8216687;28;20044;-58
2024/01/18 02:18:24;;;;;;;3.05;2.83;;;;;;;;;;8212621;28;20097;-57
2024/01/18 02:22:26;;;;;;;2.55;2.35;;;;;;;;;;8231787;28;20028;-58
2024/01/18 02:26:26;;;;;;;2.75;2.55;;;;;;;;;;8234206;28;20029;-59
2024/01/18 02:30:26;;;;;;;2.72;2.47;;;;;;;;;;8233177;28;20137;-60
2024/01/18 02:34:26;;;;;;;2.67;2.45;;;;;;;;;;8219084;28;20568;-60
2024/01/18 02:38:26;;;;;;;2.25;2.05;;;;;;;;;;8216674;28;20034;-59
2024/01/18 02:42:27;;;;;;;2.67;2.47;;;;;;;;;;8223634;28;20030;-59
2024/01/18 02:46:33;;;;;;;2.13;2.00;;;;;;;;;;8218966;28;20388;-59
2024/01/18 02:50:33;;;;;;;2.83;2.60;;;;;;;;;;8219782;28;20037;-59
2024/01/18 02:54:33;;;;;;;2.88;2.67;;;;;;;;;;8214629;28;20486;-59
2024/01/18 02:58:33;;;;;;;3.88;3.30;;;;;;;;;;8214538;28;20038;-59
2024/01/18 03:02:34;;;;;;;2.63;2.42;;;;;;;;;;8214455;28;20034;-59
2024/01/18 03:06:34;;;;;;;2.78;2.58;;;;;;;;;;8215169;28;20109;-61
2024/01/18 03:10:34;;;;;;;3.50;3.00;;;;;;;;;;8211416;28;20034;-58
2024/01/18 03:14:35;;;;;;;4.53;3.40;;;;;;;;;;8212936;28;20032;-58
2024/01/18 03:18:35;;;;;;;5.50;3.53;;;;;;;;;;8215811;28;20203;-58
2024/01/18 03:22:40;;;;;;;3.20;2.90;;;;;;;;;;8223384;28;20673;-58
2024/01/18 03:26:41;;;;;;;2.60;2.40;;;;;;;;;;8252245;28;20014;-58
2024/01/18 03:30:41;;;;;;;3.08;2.78;;;;;;;;;;8230553;28;20033;-59
2024/01/18 03:34:41;;;;;;;3.17;2.85;;;;;;;;;;8216439;28;20026;-59
2024/01/18 03:38:41;;;;;;;2.90;2.63;;;;;;;;;;8211742;28;20160;-59
2024/01/18 03:42:41;;;;;;;2.88;2.58;;;;;;;;;;8216771;28;20045;-58
2024/01/18 03:46:42;;;;;;;4.15;2.33;;;;;;;;;;8217437;28;20065;-60
2024/01/18 03:50:42;;;;;;;2.63;2.42;;;;;;;;;;8220207;28;20022;-57
2024/01/18 03:54:42;;;;;;;3.15;2.35;;;;;;;;;;8213163;28;20499;-57
2024/01/18 03:58:43;;;;;;;3.05;2.55;;;;;;;;;;8209534;28;20029;-58
2024/01/18 04:02:44;;;;;;;3.17;2.70;;;;;;;;;;8211469;28;20073;-58
2024/01/18 04:06:44;;;;;;;2.95;2.75;;;;;;;;;;8213351;28;20014;-58
2024/01/18 04:10:44;;;;;;;3.15;2.90;;;;;;;;;;8211069;28;20564;-59
2024/01/18 04:14:44;;;;;;;3.67;2.83;;;;;;;;;;8214296;28;20113;-57
2024/01/18 04:18:44;;;;;;;3.45;2.40;;;;;;;;;;8219322;28;20571;-57
2024/01/18 04:22:45;;;;;;;2.47;2.28;;;;;;;;;;8219041;28;20030;-58
2024/01/18 04:26:47;;;;;;;2.10;1.90;;;;;;;;;;8236379;28;20017;-58
2024/01/18 04:30:47;;;;;;;2.67;2.47;;;;;;;;;;8227381;28;20547;-58
2024/01/18 04:34:47;;;;;;;3.22;2.50;;;;;;;;;;8227187;28;20037;-58
2024/01/18 04:38:48;;;;;;;2.75;2.55;;;;;;;;;;8214916;28;20030;-59
2024/01/18 04:42:48;;;;;;;2.40;2.20;;;;;;;;;;8216044;28;20014;-59
2024/01/18 04:46:48;;;;;;;2.45;2.25;;;;;;;;;;8215087;28;20118;-58
2024/01/18 04:50:48;;;;;;;3.10;2.30;;;;;;;;;;8217246;28;20577;-59
2024/01/18 04:54:48;;;;;;;2.70;2.50;;;;;;;;;;8223145;28;20593;-58
2024/01/18 04:58:50;;;;;;;2.40;2.20;;;;;;;;;;8228395;28;20377;-58
2024/01/18 05:02:50;;;;;;;2.67;2.47;;;;;;;;;;8225756;28;20064;-58
2024/01/18 05:06:50;;;;;;;2.58;2.38;;;;;;;;;;8227820;28;20033;-59
2024/01/18 05:10:50;;;;;;;2.58;2.38;;;;;;;;;;8225478;28;20377;-58
2024/01/18 05:14:50;;;;;;;2.63;2.43;;;;;;;;;;8228759;28;20068;-58
2024/01/18 05:18:51;;;;;;;2.95;2.65;;;;;;;;;;8223944;28;20427;-57
2024/01/18 05:22:51;;;;;;;3.45;2.70;;;;;;;;;;8218888;28;20030;-59
2024/01/18 05:26:51;;;;;;;2.90;2.60;;;;;;;;;;8216465;28;21961;-57
2024/01/18 05:30:51;;;;;;;3.10;2.50;;;;;;;;;;8210529;28;20730;-59
2024/01/18 05:34:52;;;;;;;2.83;2.33;;;;;;;;;;8219935;28;20326;-59
2024/01/18 05:38:52;;;;;;;2.40;2.20;;;;;;;;;;8219966;28;20474;-59
2024/01/18 05:42:53;;;;;;;2.70;2.47;;;;;;;;;;8220283;28;20523;-58
2024/01/18 05:46:53;;;;;;;2.50;2.30;;;;;;;;;;8217752;28;20591;-58
2024/01/18 05:50:53;;;;;;;2.95;2.65;;;;;;;;;;8217621;28;20744;-57
2024/01/18 05:54:53;;;;;;;2.47;2.28;;;;;;;;;;8215198;28;20390;-58
2024/01/18 05:58:55;;;;;;;2.65;2.20;;;;;;;;;;8215749;28;20601;-57
2024/01/18 06:02:56;;;;;;;2.50;2.30;;;;;;;;;;8216481;28;20500;-57
2024/01/18 06:06:57;;;;;;;2.10;1.83;;;;;;;;;;8219137;28;20018;-59
2024/01/18 06:10:57;;;;;;;1.60;1.50;;;;;;;;;;8218419;28;20053;-58
2024/01/18 06:14:57;;;;;;;2.10;1.50;;;;;;;;;;8214359;28;20116;-59
2024/01/18 06:18:58;;;;;;;1.40;1.30;;;;;;;;;;8211504;28;20121;-57
2024/01/18 06:22:58;;;;;;;1.20;1.10;;;;;;;;;;8216245;28;20022;-58
2024/01/18 06:26:58;;;;;;;1.17;1.08;;;;;;;;;;8221350;28;20117;-58
2024/01/18 06:30:59;;;;;;;1.13;1.02;;;;;;;;;;8215283;28;20030;-57
2024/01/18 06:34:59;;;;;;;1.13;1.02;;;;;;;;;;8219111;28;20026;-58
2024/01/18 06:38:59;;;;;;;1.30;1.20;;;;;;;;;;8215439;28;20072;-58
2024/01/18 06:43:00;;;;;;;0.90;0.90;;;;;;;;;;8218101;28;20112;-57
2024/01/18 06:47:00;;;;;;;3.15;1.05;;;;;;;;;;8219314;28;20462;-57
2024/01/18 06:51:01;;;;;;;1.42;1.00;;;;;;;;;;8215761;28;20017;-58
2024/01/18 06:55:01;;;;;;;1.10;1.00;;;;;;;;;;8215404;28;20069;-58
2024/01/18 06:59:02;;;;;;;0.90;0.90;;;;;;;;;;8212726;28;20026;-58
2024/01/18 07:03:02;;;;;;;1.02;1.02;;;;;;;;;;8214980;28;20392;-58
2024/01/18 07:07:03;;;;;;;1.17;1.00;;;;;;;;;;8212259;28;20612;-59
2024/01/18 07:11:04;;;;;;;1.63;1.20;;;;;;;;;;8219728;28;20036;-59
2024/01/18 07:15:07;;;;;;;1.08;1.00;;;;;;;;;;8217758;28;20033;-60
2024/01/18 07:19:07;;;;;;;1.00;1.00;;;;;;;;;;8213316;28;20030;-60
2024/01/18 07:23:07;;;;;;;0.95;0.95;;;;;;;;;;8220393;28;20491;-58
2024/01/18 07:27:09;;;;;;;1.52;1.00;;;;;;;;;;8215509;28;20030;-59
2024/01/18 07:31:09;;;;;;;0.85;0.85;;;;;;;;;;8215006;28;21623;-60
2024/01/18 07:35:09;;;;;;;1.00;1.00;;;;;;;;;;8215975;28;21172;-59
2024/01/18 07:39:10;;;;;;;0.80;0.80;;;;;;;;;;8217135;28;21358;-61
2024/01/18 07:43:10;;;;;;;1.10;0.90;;;;;;;;;;8219005;28;20038;-60
2024/01/18 07:47:10;;;;;;;1.20;1.10;;;;;;;;;;8215163;28;20697;-60
2024/01/18 07:51:11;;;;;;;1.08;0.95;;;;;;;;;;8220037;28;20026;-59
2024/01/18 07:55:11;;;;;;;1.30;1.20;;;;;;;;;;8211675;28;20293;-57
2024/01/18 07:59:11;;;;;;;1.30;1.20;;;;;;;;;;8214566;28;20540;-57
2024/01/18 08:03:11;;;;;;;1.20;1.15;;;;;;;;;;8204711;28;20335;-59
2024/01/18 08:07:11;;;;;;;1.48;1.38;;;;;;;;;;8208962;28;20114;-57
2024/01/18 08:11:12;;;;;;;1.50;1.35;;;;;;;;;;8223084;28;20108;-58
2024/01/18 08:15:12;;;;;;;1.83;1.33;;;;;;;;;;8222387;28;20658;-59
2024/01/18 08:19:13;;;;;;;1.73;1.45;;;;;;;;;;8228815;28;20056;-59
2024/01/18 08:23:13;;;;;;;1.58;1.40;;;;;;;;;;8222966;28;20030;-58
2024/01/18 08:27:13;;;;;;;1.17;1.13;;;;;;;;;;8223771;28;20034;-59
2024/01/18 08:31:13;;;;;;;1.40;1.30;;;;;;;;;;8222122;28;20319;-59
2024/01/18 08:35:13;;;;;;;1.30;1.20;;;;;;;;;;8226540;28;20041;-58
2024/01/18 08:39:14;;;;;;;1.73;1.52;;;;;;;;;;8226493;28;20034;-58
2024/01/18 08:43:14;;;;;;;1.35;1.25;;;;;;;;;;8227212;28;20029;-60
2024/01/18 08:47:14;;;;;;;1.57;1.47;;;;;;;;;;8223601;28;20034;-60
2024/01/18 08:51:15;;;;;;;1.42;1.33;;;;;;;;;;8216600;28;20282;-60
2024/01/18 08:55:15;;;;;;;1.17;1.13;;;;;;;;;;8222280;28;20070;-61
2024/01/18 08:59:15;;;;;;;1.63;1.52;;;;;;;;;;8223607;28;20548;-60
2024/01/18 09:03:15;;;;;;;1.80;1.60;;;;;;;;;;8220078;28;20054;-60
2024/01/18 09:07:16;;;;;;;2.38;1.52;;;;;;;;;;8217711;28;20312;-60
2024/01/18 09:11:16;;;;;;;1.55;1.45;;;;;;;;;;8215266;28;20044;-60
2024/01/18 09:15:16;;;;;;;2.70;1.60;;;;;;;;;;8223303;28;20105;-61
2024/01/18 09:19:16;;;;;;;2.65;1.90;;;;;;;;;;8219940;28;20022;-62
2024/01/18 09:23:16;;;;;;;2.47;1.95;;;;;;;;;;8215466;28;20026;-62
2024/01/18 09:27:16;;;;;;;2.42;1.90;;;;;;;;;;8212164;28;20037;-63
2024/01/18 09:31:17;;;;;;;3.55;1.70;;;;;;;;;;8220047;28;20031;-62
2024/01/18 09:35:17;;;;;;;2.05;1.67;;;;;;;;;;8219665;28;20362;-61
2024/01/18 09:39:17;;;;;;;1.88;1.75;;;;;;;;;;8216479;28;20609;-62
2024/01/18 09:43:18;;;;;;;2.00;1.70;;;;;;;;;;8222550;28;20069;-62
2024/01/18 09:47:18;;;;;;;2.28;1.85;;;;;;;;;;8226568;28;20053;-62
2024/01/18 09:51:21;;;;;;;2.00;1.80;;;;;;;;;;8224278;28;20037;-62
2024/01/18 09:55:21;;;;;;;2.28;1.85;;;;;;;;;;8209742;28;20077;-62
2024/01/18 09:59:21;;;;;;;1.60;1.50;;;;;;;;;;8209310;28;20046;-62
2024/01/18 10:03:22;;;;;;;2.20;1.70;;;;;;;;;;8214409;28;20048;-61
2024/01/18 10:07:22;;;;;;;2.85;2.15;;;;;;;;;;8204973;28;20535;-61
2024/01/18 10:11:22;;;;;;;3.22;1.80;;;;;;;;;;8211620;28;20124;-61
2024/01/18 10:15:31;;;;;;;24.77;9.55;;;;;;;;;;8211640;28;20096;-61
2024/01/18 10:19:31;;;;;;;3.63;2.30;;;;;;;;;;8207873;28;20049;-61
2024/01/18 10:23:31;;;;;;;1.98;1.77;;;;;;;;;;8223879;28;20022;-60
2024/01/18 10:27:31;;;;;;;2.33;1.85;;;;;;;;;;8222947;28;20022;-60
2024/01/18 10:31:32;;;;;;;4.10;2.37;;;;;;;;;;8221564;28;20066;-61
2024/01/18 10:35:32;;;;;;;2.40;2.20;;;;;;;;;;8228112;28;20276;-61
2024/01/18 10:39:39;;;;;;;2.60;2.35;;;;;;;;;;8217128;28;20025;-60
2024/01/18 10:43:39;;;;;;;2.40;2.20;;;;;;;;;;8226863;28;20464;-62
2024/01/18 10:47:39;;;;;;;2.23;2.00;;;;;;;;;;8235837;28;20526;-63
2024/01/18 10:51:40;;;;;;;4.82;2.60;;;;;;;;;;8224875;28;21184;-62
2024/01/18 10:55:40;;;;;;;6.90;4.28;;;;;;;;;;8227931;28;20030;-62
2024/01/18 10:59:40;;;;;;;3.55;2.75;;;;;;;;;;8225435;28;20028;-62
2024/01/18 11:03:41;;;;;;;5.43;3.47;;;;;;;;;;8226139;28;20101;-61
2024/01/18 11:07:41;;;;;;;5.07;3.45;;;;;;;;;;8221177;28;20022;-62
2024/01/18 11:11:41;;;;;;;4.47;3.30;;;;;;;;;;8219432;28;20029;-62
2024/01/18 11:15:44;;;;;;;4.75;3.47;;;;;;;;;;8226569;28;20037;-62
2024/01/18 11:19:44;;;;;;;3.88;3.22;;;;;;;;;;8235162;28;20026;-62
2024/01/18 11:23:45;;;;;;;3.92;3.22;;;;;;;;;;8210701;28;20066;-62
2024/01/18 11:27:45;;;;;;;4.30;3.30;;;;;;;;;;8205917;28;20058;-62
2024/01/18 11:31:49;;;;;;;5.40;3.80;;;;;;;;;;8210614;28;20146;-61
2024/01/18 11:35:49;;;;;;;5.68;4.45;;;;;;;;;;8215705;28;20026;-62
2024/01/18 11:39:50;;;;;;;5.15;3.63;;;;;;;;;;8205863;28;20132;-63
2024/01/18 11:43:55;;;;;;;7.05;4.60;;;;;;;;;;8216655;28;20043;-62
2024/01/18 11:47:55;;;;;;;11.90;9.32;;;;;;;;;;8211889;28;20662;-62
2024/01/18 11:51:58;;;;;;;8.18;5.97;;;;;;;;;;8210783;28;20018;-61
2024/01/18 11:55:59;;;;;;;5.15;4.20;;;;;;;;;;8211170;28;20018;-60
2024/01/18 12:00:00;;;;;;;6.57;3.97;;;;;;;;;;8208174;28;20545;-60
2024/01/18 12:04:01;;;;;;;5.93;4.93;;;;;;;;;;8217997;28;20046;-60
2024/01/18 12:08:01;;;;;;;5.20;4.20;;;;;;;;;;8206234;28;20029;-60
2024/01/18 12:12:01;;;;;;;5.97;3.80;;;;;;;;;;8208663;28;20087;-60
2024/01/18 12:16:02;;;;;;;4.18;3.60;;;;;;;;;;8209493;28;20149;-60
2024/01/18 12:20:02;;;;;;;4.53;3.57;;;;;;;;;;8212243;28;20620;-59
2024/01/18 12:24:02;;;;;;;4.93;3.83;;;;;;;;;;8211717;28;20277;-60
2024/01/18 12:28:03;;;;;;;6.68;5.50;;;;;;;;;;8207944;28;20526;-60
2024/01/18 12:32:04;;;;;;;5.97;4.63;;;;;;;;;;8201476;28;20041;-60
2024/01/18 12:36:04;;;;;;;6.00;5.10;;;;;;;;;;8212120;28;20548;-60
2024/01/18 12:40:07;;;;;;;9.05;5.57;;;;;;;;;;8211459;28;20422;-60
2024/01/18 12:44:07;;;;;;;6.13;4.97;;;;;;;;;;8227701;28;20037;-60
2024/01/18 12:48:08;;;;;;;6.25;4.88;;;;;;;;;;8223457;28;20038;-62
2024/01/18 12:52:08;;;;;;;9.13;5.80;;;;;;;;;;8224566;28;20029;-62
2024/01/18 12:56:15;;;;;;;10.05;7.18;;;;;;;;;;8224652;28;20307;-60
2024/01/18 13:00:15;;;;;;;12.05;8.95;;;;;;;;;;8219770;28;20099;-62
2024/01/18 13:04:24;;;;;;;12.73;9.43;;;;;;;;;;8225101;28;20025;-62
2024/01/18 13:08:25;;;;;;;12.50;8.02;;;;;;;;;;8224093;28;20556;-62
2024/01/18 13:12:25;;;;;;;20.15;15.55;;;;;;;;;;8215558;28;20773;-61
2024/01/18 13:16:28;;;;;;;42.65;27.95;;;;;;;;;;8210789;28;20046;-61
2024/01/18 13:20:29;;;;;;;18.65;12.68;;;;;;;;;;8223718;28;20034;-62
2024/01/18 13:24:29;;;;;;;14.15;9.23;;;;;;;;;;8222119;28;20450;-61
2024/01/18 13:28:30;;;;;;;13.52;8.98;;;;;;;;;;8219644;28;20684;-62
2024/01/18 13:32:30;;;;;;;17.55;12.75;;;;;;;;;;8218310;28;20608;-62
2024/01/18 13:36:31;;;;;;;12.55;8.20;;;;;;;;;;8221542;28;20030;-62
2024/01/18 13:40:31;;;;;;;13.27;7.13;;;;;;;;;;8223880;28;20044;-62
2024/01/18 13:44:31;;;;;;;12.35;8.00;;;;;;;;;;8225289;28;20494;-61
2024/01/18 13:48:32;;;;;;;12.48;8.35;;;;;;;;;;8223533;28;20401;-59
2024/01/18 13:52:32;;;;;;;11.57;7.07;;;;;;;;;;8220650;28;20476;-60
2024/01/18 13:56:32;;;;;;;11.13;7.18;;;;;;;;;;8219297;28;20026;-59
2024/01/18 14:00:32;;;;;;;12.17;7.47;;;;;;;;;;8215678;28;20045;-60
2024/01/18 14:04:33;;;;;;;12.25;7.45;;;;;;;;;;8215949;28;20309;-60
2024/01/18 14:08:33;;;;;;;11.10;7.10;;;;;;;;;;8219757;28;20022;-60
2024/01/18 14:12:33;;;;;;;12.07;7.43;;;;;;;;;;8235535;28;20596;-60
2024/01/18 14:16:36;;;;;;;12.88;7.57;;;;;;;;;;8216876;28;20425;-59
2024/01/18 14:20:36;;;;;;;13.45;7.88;;;;;;;;;;8218978;28;20097;-61
2024/01/18 14:24:37;;;;;;;12.15;7.78;;;;;;;;;;8214646;28;20402;-60
2024/01/18 14:28:37;;;;;;;15.05;8.80;;;;;;;;;;8213696;28;20554;-59
2024/01/18 14:32:38;;;;;;;13.90;8.00;;;;;;;;;;8218418;28;20994;-59
2024/01/18 14:36:38;;;;;;;12.93;7.57;;;;;;;;;;8216080;28;20475;-60
2024/01/18 14:40:38;;;;;;;13.15;7.20;;;;;;;;;;8215272;28;20566;-59
2024/01/18 14:44:39;;;;;;;11.63;7.78;;;;;;;;;;8213996;28;21105;-60
2024/01/18 14:48:39;;;;;;;13.13;7.10;;;;;;;;;;8213212;28;20370;-59
2024/01/18 14:52:39;;;;;;;13.80;7.60;;;;;;;;;;8215796;28;20467;-58
2024/01/18 14:56:43;;;;;;;15.90;6.78;;;;;;;;;;8217743;28;20033;-60
2024/01/18 15:00:43;;;;;;;10.63;6.88;;;;;;;;;;8215734;28;20140;-60
2024/01/18 15:04:44;;;;;;;14.18;6.75;;;;;;;;;;8214856;28;20272;-60
2024/01/18 15:08:45;;;;;;;13.63;7.65;;;;;;;;;;8222251;28;20523;-62
2024/01/18 15:12:45;;;;;;;12.18;6.72;;;;;;;;;;8224085;28;20037;-62
2024/01/18 15:16:45;;;;;;;13.27;6.80;;;;;;;;;;8226130;28;20118;-61
2024/01/18 15:20:46;;;;;;;10.75;6.78;;;;;;;;;;8220606;28;20092;-61
2024/01/18 15:24:46;;;;;;;12.03;6.87;;;;;;;;;;8226085;28;20025;-62
2024/01/18 15:28:46;;;;;;;11.65;6.80;;;;;;;;;;8224265;28;20272;-62
2024/01/18 15:32:47;;;;;;;10.15;6.70;;;;;;;;;;8225798;28;20598;-61
2024/01/18 15:36:47;;;;;;;10.60;6.55;;;;;;;;;;8225837;28;20034;-62
2024/01/18 15:40:48;;;;;;;10.50;5.95;;;;;;;;;;8223748;28;20022;-62
2024/01/18 15:44:48;;;;;;;12.60;6.80;;;;;;;;;;8221636;28;20025;-62
2024/01/18 15:48:53;;;;;;;12.75;6.90;;;;;;;;;;8223961;28;20470;-62
2024/01/18 15:52:53;;;;;;;12.82;6.80;;;;;;;;;;8221611;28;20281;-62
2024/01/18 15:56:53;;;;;;;12.23;7.13;;;;;;;;;;8230065;28;20854;-60
2024/01/18 16:00:54;;;;;;;15.80;7.95;;;;;;;;;;8210280;28;20731;-60
2024/01/18 16:04:54;;;;;;;13.30;7.13;;;;;;;;;;8209788;28;20653;-60
2024/01/18 16:08:54;;;;;;;14.05;7.20;;;;;;;;;;8213198;28;20981;-61
2024/01/18 16:12:56;;;;;;;15.60;8.30;;;;;;;;;;8214591;28;22315;-61
2024/01/18 16:16:56;;;;;;;11.48;7.43;;;;;;;;;;8214814;28;20042;-61
2024/01/18 16:20:57;;;;;;;15.23;8.82;;;;;;;;;;8218523;28;21500;-62
2024/01/18 16:24:57;;;;;;;17.80;9.73;;;;;;;;;;8214500;28;20026;-63
2024/01/18 16:28:57;;;;;;;14.20;7.97;;;;;;;;;;8216636;28;20025;-61
2024/01/18 16:32:58;;;;;;;12.90;7.63;;;;;;;;;;8219287;28;20184;-61
2024/01/18 16:36:58;;;;;;;16.08;8.18;;;;;;;;;;8213631;28;20278;-61
2024/01/18 16:40:58;;;;;;;17.65;8.68;;;;;;;;;;8213635;28;20088;-61
2024/01/18 16:44:58;;;;;;;18.50;9.35;;;;;;;;;;8213578;28;20034;-61
2024/01/18 16:48:59;;;;;;;20.42;9.13;;;;;;;;;;8212380;28;20049;-60
2024/01/18 16:53:02;;;;;;;19.05;10.57;;;;;;;;;;8214533;28;20046;-60
2024/01/18 16:57:03;;;;;;;18.48;10.35;;;;;;;;;;8212575;28;20034;-62
2024/01/18 17:01:03;;;;;;;20.83;10.38;;;;;;;;;;8213144;28;20053;-61
2024/01/18 17:05:04;;;;;;;21.70;10.63;;;;;;;;;;8215586;28;20454;-60
2024/01/18 17:09:06;;;;;;;15.88;8.75;;;;;;;;;;8211553;28;21016;-62
2024/01/18 17:13:07;;;;;;;16.90;9.30;;;;;;;;;;8215207;28;20019;-62
2024/01/18 17:17:07;;;;;;;16.90;9.55;;;;;;;;;;8215686;28;20519;-62
2024/01/18 17:21:07;;;;;;;18.88;10.02;;;;;;;;;;8217432;28;20104;-61
2024/01/18 17:25:10;;;;;;;17.48;10.55;;;;;;;;;;8213832;28;20630;-62
2024/01/18 17:29:10;;;;;;;21.65;10.25;;;;;;;;;;8211901;28;20104;-59
2024/01/18 17:33:10;;;;;;;19.20;11.43;;;;;;;;;;8211519;28;20046;-61
2024/01/18 17:37:13;;;;;;;22.58;10.70;;;;;;;;;;8211932;28;20024;-60
2024/01/18 17:41:13;;;;;;;22.38;11.55;;;;;;;;;;8209658;28;20142;-60
2024/01/18 17:45:14;;;;;;;19.23;9.98;;;;;;;;;;8210134;28;20106;-61
2024/01/18 17:49:14;;;;;;;20.48;10.32;;;;;;;;;;8208961;28;20057;-61
2024/01/18 17:53:14;;;;;;;19.15;10.43;;;;;;;;;;8208552;28;20030;-60
2024/01/18 17:57:14;;;;;;;22.80;9.57;;;;;;;;;;8209512;28;20048;-60
2024/01/18 18:01:15;;;;;;;19.77;10.88;;;;;;;;;;8207085;28;20514;-60
2024/01/18 18:05:15;;;;;;;16.83;10.02;;;;;;;;;;8212403;28;20084;-61
2024/01/18 18:09:15;;;;;;;19.73;9.63;;;;;;;;;;8207670;28;20026;-61
2024/01/18 18:13:15;;;;;;;20.08;8.93;;;;;;;;;;8206869;28;20022;-61
2024/01/18 18:17:15;;;;;;;28.02;11.32;;;;;;;;;;8205234;28;20051;-61
2024/01/18 18:21:20;;;;;;;20.25;11.10;;;;;;;;;;8209034;28;20030;-61
2024/01/18 18:25:20;;;;;;;34.50;15.52;;;;;;;;;;8203616;28;20030;-61
2024/01/18 18:29:20;;;;;;;34.70;15.27;;;;;;;;;;8204975;28;20466;-61
2024/01/18 18:33:21;;;;;;;21.45;10.75;;;;;;;;;;8207875;28;20038;-61
2024/01/18 18:37:21;;;;;;;17.13;9.23;;;;;;;;;;8208397;28;20508;-60
2024/01/18 18:41:21;;;;;;;20.08;9.65;;;;;;;;;;8211633;28;20041;-61
2024/01/18 18:45:21;;;;;;;16.83;9.68;;;;;;;;;;8203974;28;20034;-61
2024/01/18 18:49:22;;;;;;;17.90;10.02;;;;;;;;;;8204906;28;20144;-61
2024/01/18 18:53:22;;;;;;;13.82;8.50;;;;;;;;;;8203324;28;20121;-61
2024/01/18 18:57:22;;;;;;;15.02;8.75;;;;;;;;;;8206509;28;20471;-60
2024/01/18 19:01:22;;;;;;;15.10;8.23;;;;;;;;;;8200051;28;20057;-60
2024/01/18 19:05:22;;;;;;;14.35;8.30;;;;;;;;;;8202950;28;20150;-60
2024/01/18 19:09:23;;;;;;;14.30;8.23;;;;;;;;;;8195155;28;20576;-61
2024/01/18 19:13:23;;;;;;;18.60;8.23;;;;;;;;;;8193852;28;20030;-61
2024/01/18 19:17:23;;;;;;;15.68;7.72;;;;;;;;;;8201159;28;20507;-59
2024/01/18 19:21:24;;;;;;;14.32;8.30;;;;;;;;;;8192690;28;20058;-59
2024/01/18 19:25:24;;;;;;;15.30;8.43;;;;;;;;;;8200425;28;20029;-60
2024/01/18 19:29:24;;;;;;;14.80;9.07;;;;;;;;;;8202385;28;20120;-60
2024/01/18 19:33:24;;;;;;;18.25;9.95;;;;;;;;;;8202697;28;20042;-61
2024/01/18 19:37:24;;;;;;;14.70;8.70;;;;;;;;;;8201795;28;20030;-61
2024/01/18 19:41:27;;;;;;;15.43;8.30;;;;;;;;;;8199338;28;20292;-62
2024/01/18 19:45:27;;;;;;;13.52;6.88;;;;;;;;;;8204140;28;20412;-62
2024/01/18 19:49:28;;;;;;;16.05;7.85;;;;;;;;;;8194834;28;20022;-62
2024/01/18 19:53:28;;;;;;;15.55;8.23;;;;;;;;;;8198861;28;20410;-62
2024/01/18 19:57:29;;;;;;;12.15;6.63;;;;;;;;;;8204739;28;20022;-63
2024/01/18 20:01:29;;;;;;;15.17;7.47;;;;;;;;;;8200634;28;20099;-61
2024/01/18 20:05:31;;;;;;;11.50;6.28;;;;;;;;;;8203367;28;20300;-61
2024/01/18 20:09:32;;;;;;;14.02;6.35;;;;;;;;;;8199105;28;20096;-60
2024/01/18 20:13:32;;;;;;;13.45;6.43;;;;;;;;;;8198215;28;20057;-60
2024/01/18 20:17:32;;;;;;;12.32;6.32;;;;;;;;;;8200540;28;20404;-60
2024/01/18 20:21:33;;;;;;;12.70;5.97;;;;;;;;;;8199158;28;20046;-60
2024/01/18 20:25:33;;;;;;;10.70;6.13;;;;;;;;;;8198823;28;20277;-61
2024/01/18 20:29:33;;;;;;;12.18;6.72;;;;;;;;;;8203964;28;20075;-62
2024/01/18 20:33:33;;;;;;;11.67;5.80;;;;;;;;;;8201347;28;20038;-60
2024/01/18 20:37:34;;;;;;;12.30;5.10;;;;;;;;;;8203905;28;20604;-62
2024/01/18 20:41:34;;;;;;;11.43;4.32;;;;;;;;;;8205092;28;20042;-60
2024/01/18 20:45:34;;;;;;;8.68;4.57;;;;;;;;;;8194912;28;20147;-62
2024/01/18 20:49:34;;;;;;;11.07;4.80;;;;;;;;;;8198191;28;20025;-60
2024/01/18 20:53:34;;;;;;;8.65;4.90;;;;;;;;;;8199108;28;20040;-60
2024/01/18 20:57:35;;;;;;;10.15;4.03;;;;;;;;;;8200396;28;20036;-60
2024/01/18 21:01:35;;;;;;;12.32;4.05;;;;;;;;;;8197383;28;20750;-60
2024/01/18 21:05:35;;;;;;;9.57;4.70;;;;;;;;;;8202510;28;20669;-60
2024/01/18 21:09:35;;;;;;;8.85;4.47;;;;;;;;;;8196946;28;20037;-60
2024/01/18 21:13:35;;;;;;;9.73;4.50;;;;;;;;;;8202833;28;20715;-61
2024/01/18 21:17:36;;;;;;;9.73;5.73;;;;;;;;;;8195096;28;20026;-60
2024/01/18 21:21:36;;;;;;;9.57;5.15;;;;;;;;;;8208908;28;20790;-61
2024/01/18 21:25:36;;;;;;;9.40;4.10;;;;;;;;;;8207907;28;20583;-60
2024/01/18 21:29:37;;;;;;;9.18;5.05;;;;;;;;;;8204382;28;21188;-61
2024/01/18 21:33:37;;;;;;;12.90;5.13;;;;;;;;;;8201415;28;20724;-60
2024/01/18 21:37:38;;;;;;;10.20;5.03;;;;;;;;;;8203839;28;20045;-60
2024/01/18 21:41:41;;;;;;;8.85;4.03;;;;;;;;;;8204109;28;20037;-60
2024/01/18 21:45:42;;;;;;;10.20;4.25;;;;;;;;;;8199089;28;20280;-60
2024/01/18 21:49:42;;;;;;;7.65;3.60;;;;;;;;;;8196931;28;20049;-60
2024/01/18 21:53:43;;;;;;;7.60;3.72;;;;;;;;;;8196219;28;20026;-60
2024/01/18 21:57:43;;;;;;;4.95;3.22;;;;;;;;;;8200477;28;20025;-60
2024/01/18 22:01:43;;;;;;;10.35;4.10;;;;;;;;;;8201034;28;20629;-60
2024/01/18 22:05:43;;;;;;;10.57;4.13;;;;;;;;;;8202633;28;20467;-60
2024/01/18 22:09:44;;;;;;;6.03;3.47;;;;;;;;;;8198366;28;20348;-59
2024/01/18 22:13:44;;;;;;;6.35;3.45;;;;;;;;;;8201428;28;20029;-60
2024/01/18 22:17:44;;;;;;;7.82;3.60;;;;;;;;;;8200184;28;20026;-61
2024/01/18 22:21:44;;;;;;;10.75;3.80;;;;;;;;;;8198967;28;20585;-62
2024/01/18 22:25:44;;;;;;;8.90;3.78;;;;;;;;;;8198936;28;20025;-63
2024/01/18 22:29:45;;;;;;;6.10;3.30;;;;;;;;;;8197745;28;20487;-62
2024/01/18 22:33:45;;;;;;;9.50;4.15;;;;;;;;;;8204390;28;20038;-62
2024/01/18 22:37:45;;;;;;;14.45;5.97;;;;;;;;;;8208804;28;20026;-63
2024/01/18 22:41:45;;;;;;;12.85;5.57;;;;;;;;;;8211737;28;20027;-63
2024/01/18 22:45:45;;;;;;;12.80;5.95;;;;;;;;;;8207912;28;20095;-63
2024/01/18 22:49:46;;;;;;;11.30;5.50;;;;;;;;;;8206965;28;20332;-64
2024/01/18 22:53:46;;;;;;;16.08;7.03;;;;;;;;;;8210898;28;20030;-63
2024/01/18 22:57:46;;;;;;;18.75;7.03;;;;;;;;;;8210798;28;20342;-63
2024/01/18 23:01:46;;;;;;;22.27;7.72;;;;;;;;;;8201970;28;20549;-63
2024/01/18 23:05:47;;;;;;;9.73;4.70;;;;;;;;;;8210228;28;20191;-63
2024/01/18 23:09:47;;;;;;;6.80;4.55;;;;;;;;;;8199567;28;20307;-63
2024/01/18 23:13:48;;;;;;;9.55;5.63;;;;;;;;;;8199346;28;20466;-63
2024/01/18 23:17:48;;;;;;;9.73;5.10;;;;;;;;;;8206109;28;21072;-63
2024/01/18 23:21:48;;;;;;;12.27;6.03;;;;;;;;;;8206943;28;20018;-63
2024/01/18 23:25:48;;;;;;;8.50;4.60;;;;;;;;;;8209599;28;20022;-63
2024/01/18 23:29:49;;;;;;;9.43;5.47;;;;;;;;;;8212504;28;20621;-63
2024/01/18 23:33:51;;;;;;;11.45;5.68;;;;;;;;;;8208822;28;20030;-63
2024/01/18 23:37:51;;;;;;;9.48;4.80;;;;;;;;;;8208911;28;21757;-63
2024/01/18 23:41:51;;;;;;;8.23;4.75;;;;;;;;;;8208523;28;20056;-63
2024/01/18 23:45:51;;;;;;;12.35;5.22;;;;;;;;;;8205728;28;20084;-63
2024/01/18 23:49:57;;;;;;;11.20;5.22;;;;;;;;;;8208277;28;20475;-62